Time;durP1;ratioP1;P1;durP2;ratioP2;P2;SDS_P1;SDS_P2;PMS_P1;PMS_P2;Temp;Humidity;BMP_temperature;BMP_pressure;BME280_temperature;BME280_humidity;BME280_pressure;Samples;Min_cycle;Max_cycle;Signal;HPM_P1;HPM_P2
2022/03/17 00:01:23;;;;;;;;;;;;;;;;;;5053481;28;19916;-77
2022/03/17 00:03:49;;;;;;;;;;;;;;;;;;5053480;28;19917;-78
2022/03/17 00:06:14;;;;;;;;;;;;;;;;;;5053418;28;19917;-77
2022/03/17 00:08:40;;;;;;;;;;;;;;;;;;5053402;28;19921;-78
2022/03/17 00:11:05;;;;;;;;;;;;;;;;;;5053245;28;20004;-77
2022/03/17 00:13:31;;;;;;;;;;;;;;;;;;5053360;28;19956;-77
2022/03/17 00:15:57;;;;;;;;;;;;;;;;;;5053413;28;19917;-78
2022/03/17 00:18:22;;;;;;;;;;;;;;;;;;5053338;28;20384;-78
2022/03/17 00:20:48;;;;;;;;;;;;;;;;;;5053264;28;19921;-78
2022/03/17 00:23:13;;;;;;;;;;;;;;;;;;5053155;28;19917;-77
2022/03/17 00:25:39;;;;;;;;;;;;;;;;;;5053215;28;20007;-78
2022/03/17 00:28:04;;;;;;;;;;;;;;;;;;5053254;28;19923;-77
2022/03/17 00:30:29;;;;;;;;;;;;;;;;;;5053202;28;19959;-78
2022/03/17 00:32:55;;;;;;;;;;;;;;;;;;5053470;28;19924;-78
2022/03/17 00:35:36;;;;;;;;;;;;;;;;;;5053195;28;19916;-77
2022/03/17 00:38:02;;;;;;;;;;;;;;;;;;5053188;28;20027;-77
2022/03/17 00:40:28;;;;;;;;;;;;;;;;;;5052896;28;19928;-77
2022/03/17 00:42:55;;;;;;;;;;;;;;;;;;5053040;28;19916;-77
2022/03/17 00:45:21;;;;;;;;;;;;;;;;;;5053001;28;20023;-78
2022/03/17 00:47:47;;;;;;;;;;;;;;;;;;5053016;28;19916;-78
2022/03/17 00:50:12;;;;;;;;;;;;;;;;;;5052893;28;19917;-77
2022/03/17 00:52:38;;;;;;;;;;;;;;;;;;5053019;28;19920;-78
2022/03/17 00:55:05;;;;;;;;;;;;;;;;;;5052961;28;20331;-78
2022/03/17 00:57:30;;;;;;;;;;;;;;;;;;5052949;28;19916;-78
2022/03/17 00:59:56;;;;;;;;;;;;;;;;;;5053940;28;19917;-78
2022/03/17 01:02:22;;;;;;;;;;;;;;;;;;5056505;28;19956;-77
2022/03/17 01:04:47;;;;;;;;;;;;;;;;;;5056568;28;19924;-77
2022/03/17 01:07:13;;;;;;;;;;;;;;;;;;5056368;28;19924;-78
2022/03/17 01:09:38;;;;;;;;;;;;;;;;;;5071703;28;19925;-77
2022/03/17 01:12:04;;;;;;;;;;;;;;;;;;5056286;28;19939;-78
2022/03/17 01:14:29;;;;;;;;;;;;;;;;;;5056397;28;19923;-77
2022/03/17 01:16:54;;;;;;;;;;;;;;;;;;5071639;28;20387;-78
2022/03/17 01:22:48;;;;;;;;;;;;;;;;;;5044208;28;20372;-78
2022/03/17 01:25:14;;;;;;;;;;;;;;;;;;5056110;28;19956;-77
2022/03/17 01:27:40;;;;;;;;;;;;;;;;;;5055872;28;19963;-78
2022/03/17 01:30:09;;;;;;;;;;;;;;;;;;5056028;28;20380;-78
2022/03/17 01:32:35;;;;;;;;;;;;;;;;;;5056018;28;19939;-77
2022/03/17 01:35:00;;;;;;;;;;;;;;;;;;5055961;28;19925;-77
2022/03/17 01:37:27;;;;;;;;;;;;;;;;;;5054611;28;19917;-77
2022/03/17 01:39:53;;;;;;;;;;;;;;;;;;5055848;28;19921;-78
2022/03/17 01:42:19;;;;;;;;;;;;;;;;;;5055877;28;19952;-77
2022/03/17 01:44:44;;;;;;;;;;;;;;;;;;5055861;28;20443;-77
2022/03/17 01:47:28;;;;;;;;;;;;;;;;;;5071184;28;19928;-78
2022/03/17 01:49:58;;;;;;;;;;;;;;;;;;5055830;28;20004;-77
2022/03/17 01:52:24;;;;;;;;;;;;;;;;;;5055692;28;19976;-77
2022/03/17 01:54:49;;;;;;;;;;;;;;;;;;5070975;28;20369;-77
2022/03/17 01:57:15;;;;;;;;;;;;;;;;;;5055883;28;19923;-77
2022/03/17 01:59:40;;;;;;;;;;;;;;;;;;5055510;28;19917;-78
2022/03/17 02:02:07;;;;;;;;;;;;;;;;;;5055470;28;20336;-76
2022/03/17 02:04:33;;;;;;;;;;;;;;;;;;5055426;28;19913;-78
2022/03/17 02:06:59;;;;;;;;;;;;;;;;;;5055880;28;19963;-77
2022/03/17 02:09:26;;;;;;;;;;;;;;;;;;5055822;28;19916;-77
2022/03/17 02:14:46;;;;;;;;;;;;;;;;;;5055831;28;19924;-77
2022/03/17 02:17:12;;;;;;;;;;;;;;;;;;5055225;28;19921;-77
2022/03/17 02:19:37;;;;;;;;;;;;;;;;;;5054899;28;19971;-77
2022/03/17 02:22:03;;;;;;;;;;;;;;;;;;5055246;28;19923;-77
2022/03/17 02:27:12;;;;;;;;;;;;;;;;;;5055170;28;19924;-77
2022/03/17 02:29:38;;;;;;;;;;;;;;;;;;5054649;28;19917;-77
2022/03/17 02:32:04;;;;;;;;;;;;;;;;;;5053354;28;20387;-78
2022/03/17 02:34:29;;;;;;;;;;;;;;;;;;5054305;28;19921;-77
2022/03/17 02:36:55;;;;;;;;;;;;;;;;;;5069741;28;20029;-78
2022/03/17 02:39:24;;;;;;;;;;;;;;;;;;5054202;28;20499;-77
2022/03/17 02:41:49;;;;;;;;;;;;;;;;;;5054180;28;20330;-78
2022/03/17 02:44:15;;;;;;;;;;;;;;;;;;5054478;28;20004;-77
2022/03/17 02:46:41;;;;;;;;;;;;;;;;;;5054294;28;19920;-77
2022/03/17 02:49:06;;;;;;;;;;;;;;;;;;5054232;28;20276;-78
2022/03/17 02:51:32;;;;;;;;;;;;;;;;;;5054303;28;20046;-78
2022/03/17 02:53:57;;;;;;;;;;;;;;;;;;5069642;28;20284;-78
2022/03/17 02:56:23;;;;;;;;;;;;;;;;;;5054119;28;19962;-78
2022/03/17 02:58:48;;;;;;;;;;;;;;;;;;5069507;28;19921;-78
2022/03/17 03:01:14;;;;;;;;;;;;;;;;;;5069535;28;20000;-77
2022/03/17 03:03:39;;;;;;;;;;;;;;;;;;5054398;28;20431;-78
2022/03/17 03:06:05;;;;;;;;;;;;;;;;;;5069669;28;20390;-78
2022/03/17 03:08:30;;;;;;;;;;;;;;;;;;5054207;28;19952;-78
2022/03/17 03:10:57;;;;;;;;;;;;;;;;;;5054133;28;19917;-78
2022/03/17 03:13:22;;;;;;;;;;;;;;;;;;5054244;28;20315;-77
2022/03/17 03:15:50;;;;;;;;;;;;;;;;;;5054142;28;19913;-77
2022/03/17 03:18:15;;;;;;;;;;;;;;;;;;5054008;28;20011;-77
2022/03/17 03:20:41;;;;;;;;;;;;;;;;;;5054328;28;19960;-77
2022/03/17 03:23:06;;;;;;;;;;;;;;;;;;5053807;28;19976;-78
2022/03/17 03:25:32;;;;;;;;;;;;;;;;;;5069433;28;19923;-78
2022/03/17 03:28:04;;;;;;;;;;;;;;;;;;5053974;28;20342;-78
2022/03/17 03:30:29;;;;;;;;;;;;;;;;;;5053854;28;20380;-77
2022/03/17 03:32:55;;;;;;;;;;;;;;;;;;5053947;28;19917;-77
2022/03/17 03:38:04;;;;;;;;;;;;;;;;;;5054315;28;19924;-77
2022/03/17 03:40:30;;;;;;;;;;;;;;;;;;5053416;28;19921;-78
2022/03/17 03:42:55;;;;;;;;;;;;;;;;;;5053686;28;20019;-78
2022/03/17 03:45:21;;;;;;;;;;;;;;;;;;5053715;28;19920;-78
2022/03/17 03:47:46;;;;;;;;;;;;;;;;;;5053741;28;20329;-77
2022/03/17 03:50:11;;;;;;;;;;;;;;;;;;5053883;28;19923;-78
2022/03/17 03:52:37;;;;;;;;;;;;;;;;;;5053886;28;20303;-77
2022/03/17 03:55:02;;;;;;;;;;;;;;;;;;5053594;28;19916;-78
2022/03/17 03:57:28;;;;;;;;;;;;;;;;;;5053600;28;19944;-78
2022/03/17 03:59:53;;;;;;;;;;;;;;;;;;5053783;28;19917;-78
2022/03/17 04:02:19;;;;;;;;;;;;;;;;;;5053521;28;20325;-78
2022/03/17 04:04:44;;;;;;;;;;;;;;;;;;5053474;28;19917;-78
2022/03/17 04:07:11;;;;;;;;;;;;;;;;;;5053489;28;19932;-78
2022/03/17 04:09:40;;;;;;;;;;;;;;;;;;5053431;28;19920;-77
2022/03/17 04:12:06;;;;;;;;;;;;;;;;;;5053462;28;19999;-78
2022/03/17 04:14:32;;;;;;;;;;;;;;;;;;5053480;28;20007;-77
2022/03/17 04:16:57;;;;;;;;;;;;;;;;;;5068850;28;19959;-77
2022/03/17 04:19:23;;;;;;;;;;;;;;;;;;5053362;28;19962;-78
2022/03/17 04:21:49;;;;;;;;;;;;;;;;;;5053601;28;19917;-78
2022/03/17 04:26:33;;;;;;;;;;;;;;;;;;5110203;27;20318;-75
2022/03/17 04:28:59;;;;;;;;;;;;;;;;;;5088800;28;19921;-75
2022/03/17 04:31:24;;;;;;;;;;;;;;;;;;5082126;28;19928;-75
2022/03/17 04:33:50;;;;;;;;;;;;;;;;;;5091236;28;19921;-75
2022/03/17 04:36:16;;;;;;;;;;;;;;;;;;5092165;28;19920;-76
2022/03/17 04:38:42;;;;;;;;;;;;;;;;;;5090298;28;20272;-76
2022/03/17 04:41:09;;;;;;;;;;;;;;;;;;5089951;28;19916;-75
2022/03/17 04:43:35;;;;;;;;;;;;;;;;;;5089931;28;19966;-77
2022/03/17 04:46:01;;;;;;;;;;;;;;;;;;5089877;28;19917;-76
2022/03/17 04:48:26;;;;;;;;;;;;;;;;;;5089927;28;19923;-77
2022/03/17 04:50:52;;;;;;;;;;;;;;;;;;5088191;28;19921;-77
2022/03/17 04:53:30;;;;;;;;;;;;;;;;;;5104528;28;19920;-76
2022/03/17 04:55:56;;;;;;;;;;;;;;;;;;5109860;28;20395;-77
2022/03/17 04:58:22;;;;;;;;;;;;;;;;;;5110800;28;19916;-76
2022/03/17 05:00:47;;;;;;;;;;;;;;;;;;5097017;28;20034;-77
2022/03/17 05:03:13;;;;;;;;;;;;;;;;;;5092997;28;20016;-77
2022/03/17 05:05:39;;;;;;;;;;;;;;;;;;5099634;28;20414;-76
2022/03/17 05:08:05;;;;;;;;;;;;;;;;;;5109714;28;19916;-76
2022/03/17 05:10:31;;;;;;;;;;;;;;;;;;5092145;28;20011;-77
2022/03/17 05:12:59;;;;;;;;;;;;;;;;;;5089913;28;19951;-77
2022/03/17 05:15:25;;;;;;;;;;;;;;;;;;5082482;28;20292;-76
2022/03/17 05:17:51;;;;;;;;;;;;;;;;;;5084081;28;19917;-77
2022/03/17 05:20:17;;;;;;;;;;;;;;;;;;5093321;28;19916;-75
2022/03/17 05:22:42;;;;;;;;;;;;;;;;;;5088380;28;20007;-75
2022/03/17 05:25:08;;;;;;;;;;;;;;;;;;5089922;28;19968;-76
2022/03/17 05:27:38;;;;;;;;;;;;;;;;;;5090149;28;19923;-75
2022/03/17 05:41:59;;;;;;;;;;;;;;;;;;5132269;27;19916;-76
2022/03/17 05:44:25;;;;;;;;;;;;;;;;;;5130791;28;19965;-77
2022/03/17 05:46:50;;;;;;;;;;;;;;;;;;5130703;28;20014;-77
2022/03/17 05:49:15;;;;;;;;;;;;;;;;;;5131887;27;20025;-77
2022/03/17 05:51:41;;;;;;;;;;;;;;;;;;5132033;27;19920;-77
2022/03/17 05:54:06;;;;;;;;;;;;;;;;;;5130663;28;20335;-77
2022/03/17 05:56:32;;;;;;;;;;;;;;;;;;5130605;28;20371;-80
2022/03/17 05:58:57;;;;;;;;;;;;;;;;;;5165062;27;19924;-77
2022/03/17 06:01:22;;;;;;;;;;;;;;;;;;5130481;28;19966;-75
2022/03/17 06:03:48;;;;;;;;;;;;;;;;;;5131702;27;19916;-76
2022/03/17 06:06:13;;;;;;;;;;;;;;;;;;5131634;28;19916;-76
2022/03/17 06:08:39;;;;;;;;;;;;;;;;;;5131601;27;20278;-77
2022/03/17 06:11:06;;;;;;;;;;;;;;;;;;5131484;27;20473;-78
2022/03/17 06:13:32;;;;;;;;;;;;;;;;;;5131784;27;19916;-77
2022/03/17 06:15:57;;;;;;;;;;;;;;;;;;5131672;28;20297;-77
2022/03/17 06:18:23;;;;;;;;;;;;;;;;;;5131343;28;19922;-77
2022/03/17 06:20:48;;;;;;;;;;;;;;;;;;5131586;27;19922;-78
2022/03/17 06:23:14;;;;;;;;;;;;;;;;;;5131763;27;20002;-77
2022/03/17 06:25:39;;;;;;;;;;;;;;;;;;5131803;27;19922;-78
2022/03/17 06:28:05;;;;;;;;;;;;;;;;;;5131270;27;19912;-78
2022/03/17 06:30:31;;;;;;;;;;;;;;;;;;5131121;27;19955;-77
2022/03/17 06:32:57;;;;;;;;;;;;;;;;;;5131168;27;20286;-77
2022/03/17 06:35:24;;;;;;;;;;;;;;;;;;5131131;27;19951;-77
2022/03/17 06:37:51;;;;;;;;;;;;;;;;;;5131087;27;19916;-78
2022/03/17 06:40:17;;;;;;;;;;;;;;;;;;5131034;27;19958;-78
2022/03/17 06:42:42;;;;;;;;;;;;;;;;;;5118448;27;19916;-77
2022/03/17 06:45:08;;;;;;;;;;;;;;;;;;5117292;28;19919;-77
2022/03/17 06:47:34;;;;;;;;;;;;;;;;;;5117221;28;19916;-78
2022/03/17 06:49:59;;;;;;;;;;;;;;;;;;5117075;28;20371;-78
2022/03/17 06:52:25;;;;;;;;;;;;;;;;;;5117131;28;19944;-78
2022/03/17 06:54:51;;;;;;;;;;;;;;;;;;5150144;27;20256;-77
2022/03/17 06:57:17;;;;;;;;;;;;;;;;;;5117193;28;19920;-77
2022/03/17 06:59:43;;;;;;;;;;;;;;;;;;5116895;28;19959;-77
2022/03/17 07:02:08;;;;;;;;;;;;;;;;;;5117038;28;19950;-77
2022/03/17 07:04:33;;;;;;;;;;;;;;;;;;5116849;28;19920;-78
2022/03/17 07:06:59;;;;;;;;;;;;;;;;;;5116710;28;19950;-78
2022/03/17 07:09:24;;;;;;;;;;;;;;;;;;5116657;28;19969;-77
2022/03/17 07:11:50;;;;;;;;;;;;;;;;;;5116695;28;19916;-77
2022/03/17 07:14:15;;;;;;;;;;;;;;;;;;5116650;28;19916;-79
2022/03/17 07:16:41;;;;;;;;;;;;;;;;;;5116692;27;19954;-78
2022/03/17 07:19:07;;;;;;;;;;;;;;;;;;5116625;28;19919;-78
2022/03/17 07:21:33;;;;;;;;;;;;;;;;;;5116546;28;19916;-78
2022/03/17 07:23:59;;;;;;;;;;;;;;;;;;5116581;28;19920;-78
2022/03/17 07:26:24;;;;;;;;;;;;;;;;;;5116423;28;19925;-79
2022/03/17 07:28:50;;;;;;;;;;;;;;;;;;5116440;28;20375;-78
2022/03/17 07:31:15;;;;;;;;;;;;;;;;;;5116342;28;20336;-77
2022/03/17 07:33:43;;;;;;;;;;;;;;;;;;5116255;27;19916;-77
2022/03/17 07:36:08;;;;;;;;;;;;;;;;;;5116552;28;20029;-78
2022/03/17 07:38:34;;;;;;;;;;;;;;;;;;5116187;28;20375;-78
2022/03/17 07:40:59;;;;;;;;;;;;;;;;;;5115985;28;19919;-78
2022/03/17 07:43:25;;;;;;;;;;;;;;;;;;5116149;28;19916;-78
2022/03/17 07:45:53;;;;;;;;;;;;;;;;;;5116070;28;19916;-78
2022/03/17 07:48:18;;;;;;;;;;;;;;;;;;5116303;28;19973;-77
2022/03/17 07:50:44;;;;;;;;;;;;;;;;;;5115939;28;19974;-78
2022/03/17 07:53:09;;;;;;;;;;;;;;;;;;5148107;27;19970;-78
2022/03/17 07:55:35;;;;;;;;;;;;;;;;;;5115899;28;19919;-77
2022/03/17 07:58:01;;;;;;;;;;;;;;;;;;5115898;28;20381;-77
2022/03/17 08:00:26;;;;;;;;;;;;;;;;;;5115835;28;19916;-77
2022/03/17 08:02:54;;;;;;;;;;;;;;;;;;5115811;28;19919;-78
2022/03/17 08:05:19;;;;;;;;;;;;;;;;;;5115653;28;19923;-77
2022/03/17 08:07:45;;;;;;;;;;;;;;;;;;5115704;28;19911;-78
2022/03/17 08:10:11;;;;;;;;;;;;;;;;;;5115520;28;20366;-76
2022/03/17 08:12:36;;;;;;;;;;;;;;;;;;5115596;28;19915;-77
2022/03/17 08:15:05;;;;;;;;;;;;;;;;;;5115556;28;20391;-77
2022/03/17 08:17:30;;;;;;;;;;;;;;;;;;5115449;28;20023;-76
2022/03/17 08:19:56;;;;;;;;;;;;;;;;;;5115382;28;20355;-78
2022/03/17 08:22:22;;;;;;;;;;;;;;;;;;5115252;28;20294;-77
2022/03/17 08:24:47;;;;;;;;;;;;;;;;;;5115244;28;20272;-78
2022/03/17 08:27:12;;;;;;;;;;;;;;;;;;5115408;27;19919;-78
2022/03/17 08:29:42;;;;;;;;;;;;;;;;;;5115085;28;19920;-77
2022/03/17 08:32:08;;;;;;;;;;;;;;;;;;5115100;28;19919;-78
2022/03/17 08:34:34;;;;;;;;;;;;;;;;;;5115124;28;19941;-79
2022/03/17 08:36:59;;;;;;;;;;;;;;;;;;5115117;27;19923;-78
2022/03/17 08:39:25;;;;;;;;;;;;;;;;;;5114946;28;19915;-77
2022/03/17 08:41:52;;;;;;;;;;;;;;;;;;5114768;28;19920;-77
2022/03/17 08:44:17;;;;;;;;;;;;;;;;;;5114986;28;19922;-77
2022/03/17 08:49:27;;;;;;;;;;;;;;;;;;5115281;28;19960;-76
2022/03/17 08:51:53;;;;;;;;;;;;;;;;;;5115018;28;20353;-77
2022/03/17 08:54:23;;;;;;;;;;;;;;;;;;5114952;28;19916;-77
2022/03/17 08:56:49;;;;;;;;;;;;;;;;;;5114733;28;19920;-78
2022/03/17 08:59:15;;;;;;;;;;;;;;;;;;5114878;28;20290;-77
2022/03/17 09:01:40;;;;;;;;;;;;;;;;;;5114702;28;20002;-76
2022/03/17 09:04:06;;;;;;;;;;;;;;;;;;5114540;28;19961;-75
2022/03/17 09:06:31;;;;;;;;;;;;;;;;;;5114598;28;20329;-78
2022/03/17 09:08:57;;;;;;;;;;;;;;;;;;5114529;28;19959;-78
2022/03/17 09:11:22;;;;;;;;;;;;;;;;;;5114721;28;19916;-78
2022/03/17 09:13:49;;;;;;;;;;;;;;;;;;5114505;28;19919;-77
2022/03/17 09:16:17;;;;;;;;;;;;;;;;;;5114487;28;19916;-78
2022/03/17 09:18:43;;;;;;;;;;;;;;;;;;5114768;28;20006;-78
2022/03/17 09:21:09;;;;;;;;;;;;;;;;;;5114353;28;19962;-78
2022/03/17 09:23:35;;;;;;;;;;;;;;;;;;5147483;27;19916;-77
2022/03/17 09:26:00;;;;;;;;;;;;;;;;;;5114687;28;19923;-77
2022/03/17 09:28:27;;;;;;;;;;;;;;;;;;5114276;28;19999;-77
2022/03/17 09:30:54;;;;;;;;;;;;;;;;;;5114242;28;19923;-74
2022/03/17 09:33:20;;;;;;;;;;;;;;;;;;5114259;28;19916;-77
2022/03/17 09:35:48;;;;;;;;;;;;;;;;;;5114255;28;19922;-77
2022/03/17 09:38:13;;;;;;;;;;;;;;;;;;5114250;28;20414;-77
2022/03/17 09:40:38;;;;;;;;;;;;;;;;;;5147098;27;19951;-78
2022/03/17 09:43:19;;;;;;;;;;;;;;;;;;5114315;28;19916;-78
2022/03/17 09:45:50;;;;;;;;;;;;;;;;;;5114277;28;19965;-78
2022/03/17 09:48:15;;;;;;;;;;;;;;;;;;5114185;28;19923;-78
2022/03/17 09:50:42;;;;;;;;;;;;;;;;;;5114084;28;19916;-78
2022/03/17 09:53:08;;;;;;;;;;;;;;;;;;5114179;28;19948;-78
2022/03/17 09:55:34;;;;;;;;;;;;;;;;;;5114358;28;19911;-78
2022/03/17 09:58:00;;;;;;;;;;;;;;;;;;5113965;28;19916;-78
2022/03/17 10:00:47;;;;;;;;;;;;;;;;;;5114056;28;19923;-78
2022/03/17 10:03:11;;;;;;;;;;;;;;;;;;5114131;27;19951;-78
2022/03/17 10:05:36;;;;;;;;;;;;;;;;;;5114016;28;19923;-77
2022/03/17 10:08:02;;;;;;;;;;;;;;;;;;5113956;28;19919;-77
2022/03/17 10:10:37;;;;;;;;;;;;;;;;;;5113904;28;20022;-77
2022/03/17 10:13:19;;;;;;;;;;;;;;;;;;5113843;28;20014;-78
2022/03/17 10:16:04;;;;;;;;;;;;;;;;;;5114091;28;20386;-78
2022/03/17 10:18:33;;;;;;;;;;;;;;;;;;5117821;28;19927;-77
2022/03/17 10:21:06;;;;;;;;;;;;;;;;;;5117673;28;20402;-77
2022/03/17 10:23:32;;;;;;;;;;;;;;;;;;5117699;28;20358;-77
2022/03/17 10:25:57;;;;;;;;;;;;;;;;;;5117702;28;19916;-77
2022/03/17 10:28:26;;;;;;;;;;;;;;;;;;5117825;28;19923;-78
2022/03/17 10:31:03;;;;;;;;;;;;;;;;;;5117519;28;20352;-78
2022/03/17 10:33:29;;;;;;;;;;;;;;;;;;5117365;28;20448;-77
2022/03/17 10:35:54;;;;;;;;;;;;;;;;;;5117493;28;20010;-78
2022/03/17 10:38:25;;;;;;;;;;;;;;;;;;5117417;28;19978;-77
2022/03/17 10:41:01;;;;;;;;;;;;;;;;;;5117206;28;20262;-78
2022/03/17 10:43:29;;;;;;;;;;;;;;;;;;5117294;28;19923;-77
2022/03/17 10:46:23;;;;;;;;;;;;;;;;;;5117299;28;19915;-77
2022/03/17 10:48:56;;;;;;;;;;;;;;;;;;5102884;28;20073;-77
2022/03/17 10:51:38;;;;;;;;;;;;;;;;;;5117154;28;20294;-77
2022/03/17 10:54:04;;;;;;;;;;;;;;;;;;5117396;28;19969;-77
2022/03/17 10:56:30;;;;;;;;;;;;;;;;;;5117361;28;19916;-77
2022/03/17 10:58:56;;;;;;;;;;;;;;;;;;5101049;28;19920;-77
2022/03/17 11:01:40;;;;;;;;;;;;;;;;;;5105061;28;20014;-78
2022/03/17 11:04:06;;;;;;;;;;;;;;;;;;5108471;28;19916;-77
2022/03/17 11:06:32;;;;;;;;;;;;;;;;;;5105938;28;19978;-78
2022/03/17 11:09:00;;;;;;;;;;;;;;;;;;5116998;28;20362;-77
2022/03/17 11:11:26;;;;;;;;;;;;;;;;;;5116773;28;19950;-78
2022/03/17 11:13:52;;;;;;;;;;;;;;;;;;5116764;28;19916;-78
2022/03/17 11:16:19;;;;;;;;;;;;;;;;;;5116685;28;19978;-79
2022/03/17 11:18:46;;;;;;;;;;;;;;;;;;5116712;28;19916;-78
2022/03/17 11:21:21;;;;;;;;;;;;;;;;;;5116535;28;19920;-78
2022/03/17 11:23:56;;;;;;;;;;;;;;;;;;5115974;28;19915;-78
2022/03/17 11:26:23;;;;;;;;;;;;;;;;;;5116753;28;20309;-78
2022/03/17 11:28:49;;;;;;;;;;;;;;;;;;5149493;27;19919;-78
2022/03/17 11:31:19;;;;;;;;;;;;;;;;;;5098105;28;19927;-78
2022/03/17 11:33:45;;;;;;;;;;;;;;;;;;5146378;27;20436;-79
2022/03/17 11:36:19;;;;;;;;;;;;;;;;;;5114347;28;19920;-78
2022/03/17 11:38:59;;;;;;;;;;;;;;;;;;5116309;28;19942;-78
2022/03/17 11:41:26;;;;;;;;;;;;;;;;;;5115932;28;19920;-79
2022/03/17 11:43:51;;;;;;;;;;;;;;;;;;5099706;28;19920;-76
2022/03/17 11:46:18;;;;;;;;;;;;;;;;;;5116029;28;20386;-76
2022/03/17 11:48:44;;;;;;;;;;;;;;;;;;5115976;28;19916;-75
2022/03/17 11:51:11;;;;;;;;;;;;;;;;;;5114116;28;19924;-77
2022/03/17 11:53:38;;;;;;;;;;;;;;;;;;5110374;28;20008;-76
2022/03/17 11:56:03;;;;;;;;;;;;;;;;;;5115960;27;19977;-76
2022/03/17 11:58:37;;;;;;;;;;;;;;;;;;5115903;28;19919;-76
2022/03/17 12:01:13;;;;;;;;;;;;;;;;;;5115806;28;19915;-76
2022/03/17 12:03:41;;;;;;;;;;;;;;;;;;5115792;28;20002;-76
2022/03/17 12:06:12;;;;;;;;;;;;;;;;;;5115690;28;19915;-76
2022/03/17 12:08:46;;;;;;;;;;;;;;;;;;5115696;28;19916;-75
2022/03/17 12:11:13;;;;;;;;;;;;;;;;;;5114258;28;19916;-76
2022/03/17 12:13:38;;;;;;;;;;;;;;;;;;5115599;28;19920;-76
2022/03/17 12:16:04;;;;;;;;;;;;;;;;;;5115618;28;20464;-77
2022/03/17 12:18:50;;;;;;;;;;;;;;;;;;5115472;28;19916;-76
2022/03/17 12:21:15;;;;;;;;;;;;;;;;;;5115282;28;19912;-77
2022/03/17 12:23:49;;;;;;;;;;;;;;;;;;5114788;28;19962;-78
2022/03/17 12:26:18;;;;;;;;;;;;;;;;;;5105291;28;19920;-75
2022/03/17 12:28:44;;;;;;;;;;;;;;;;;;5113031;28;20295;-76
2022/03/17 12:31:10;;;;;;;;;;;;;;;;;;5101566;28;19920;-78
2022/03/17 12:33:43;;;;;;;;;;;;;;;;;;5099949;28;20031;-77
2022/03/17 12:36:09;;;;;;;;;;;;;;;;;;5130332;27;19924;-76
2022/03/17 12:38:34;;;;;;;;;;;;;;;;;;5104429;28;19980;-77
2022/03/17 12:41:00;;;;;;;;;;;;;;;;;;5094041;28;19972;-77
2022/03/17 12:43:26;;;;;;;;;;;;;;;;;;5110593;28;19915;-79
2022/03/17 12:45:52;;;;;;;;;;;;;;;;;;5109027;28;19916;-76
2022/03/17 12:48:19;;;;;;;;;;;;;;;;;;5114808;28;19927;-77
2022/03/17 12:50:45;;;;;;;;;;;;;;;;;;5108460;28;20391;-78
2022/03/17 12:53:11;;;;;;;;;;;;;;;;;;5104169;28;19959;-78
2022/03/17 12:55:36;;;;;;;;;;;;;;;;;;5100087;28;19974;-80
2022/03/17 12:58:02;;;;;;;;;;;;;;;;;;5101807;28;19982;-79
2022/03/17 13:00:28;;;;;;;;;;;;;;;;;;5099260;28;19916;-78
2022/03/17 13:02:55;;;;;;;;;;;;;;;;;;5103204;28;20390;-78
2022/03/17 13:08:05;;;;;;;;;;;;;;;;;;5107728;28;19922;-78
2022/03/17 13:14:20;;;;;;;;;;;;;;;;;;5100105;28;20008;-78
2022/03/17 13:16:04;;;;;;;;;;;;;;;;;;5103629;28;19943;-76
2022/03/17 13:18:42;;;;;;;;;;;;;;;;;;5104429;28;21480;-77
2022/03/17 13:21:12;;;;;;;;;;;;;;;;;;5097021;28;20391;-77
2022/03/17 13:23:37;;;;;;;;;;;;;;;;;;5099648;28;19923;-77
2022/03/17 13:26:03;;;;;;;;;;;;;;;;;;5097270;28;19920;-77
2022/03/17 13:28:29;;;;;;;;;;;;;;;;;;5101150;28;19928;-77
2022/03/17 13:30:54;;;;;;;;;;;;;;;;;;5098612;28;19941;-76
2022/03/17 13:33:30;;;;;;;;;;;;;;;;;;5103540;28;20363;-77
2022/03/17 13:35:56;;;;;;;;;;;;;;;;;;5100444;28;19920;-76
2022/03/17 13:38:29;;;;;;;;;;;;;;;;;;5103500;28;19930;-75
2022/03/17 13:40:56;;;;;;;;;;;;;;;;;;5100567;28;19926;-78
2022/03/17 13:43:27;;;;;;;;;;;;;;;;;;5108087;28;19919;-78
2022/03/17 13:45:53;;;;;;;;;;;;;;;;;;5103060;28;20333;-76
2022/03/17 13:48:26;;;;;;;;;;;;;;;;;;5100003;28;19928;-77
2022/03/17 13:50:53;;;;;;;;;;;;;;;;;;5098953;28;20371;-76
2022/03/17 13:53:31;;;;;;;;;;;;;;;;;;5107629;28;19924;-77
2022/03/17 13:56:04;;;;;;;;;;;;;;;;;;5113587;28;19965;-76
2022/03/17 13:58:30;;;;;;;;;;;;;;;;;;5110743;28;19965;-76
2022/03/17 14:01:05;;;;;;;;;;;;;;;;;;5118037;28;19913;-76
2022/03/17 14:03:32;;;;;;;;;;;;;;;;;;5108588;28;20370;-76
2022/03/17 14:06:01;;;;;;;;;;;;;;;;;;5102554;28;19923;-76
2022/03/17 14:08:27;;;;;;;;;;;;;;;;;;5104028;28;19919;-77
2022/03/17 14:10:52;;;;;;;;;;;;;;;;;;5108593;28;19926;-77
2022/03/17 14:13:20;;;;;;;;;;;;;;;;;;5101610;28;19923;-76
2022/03/17 14:15:46;;;;;;;;;;;;;;;;;;5106335;28;19919;-77
2022/03/17 14:18:12;;;;;;;;;;;;;;;;;;5101709;28;19920;-76
2022/03/17 14:20:37;;;;;;;;;;;;;;;;;;5107441;28;19920;-77
2022/03/17 14:25:46;;;;;;;;;;;;;;;;;;5111137;28;20389;-80
2022/03/17 14:28:12;;;;;;;;;;;;;;;;;;5112702;28;19915;-77
2022/03/17 14:30:38;;;;;;;;;;;;;;;;;;5104074;28;19928;-77
2022/03/17 14:33:03;;;;;;;;;;;;;;;;;;5101330;28;20043;-76
2022/03/17 14:35:29;;;;;;;;;;;;;;;;;;5101277;28;19920;-76
2022/03/17 14:37:54;;;;;;;;;;;;;;;;;;5101734;28;19920;-77
2022/03/17 14:40:19;;;;;;;;;;;;;;;;;;5101775;28;19943;-77
2022/03/17 14:42:49;;;;;;;;;;;;;;;;;;5116552;28;19920;-76
2022/03/17 14:45:14;;;;;;;;;;;;;;;;;;5117355;28;19918;-77
2022/03/17 14:47:40;;;;;;;;;;;;;;;;;;5116305;27;20371;-76
2022/03/17 14:50:05;;;;;;;;;;;;;;;;;;5117072;28;20010;-76
2022/03/17 14:52:31;;;;;;;;;;;;;;;;;;5117339;28;20031;-77
2022/03/17 14:54:56;;;;;;;;;;;;;;;;;;5117014;28;19916;-77
2022/03/17 14:57:24;;;;;;;;;;;;;;;;;;5117028;28;19916;-76
2022/03/17 14:59:50;;;;;;;;;;;;;;;;;;5116098;28;19927;-76
2022/03/17 15:02:16;;;;;;;;;;;;;;;;;;5116389;28;19923;-76
2022/03/17 15:04:41;;;;;;;;;;;;;;;;;;5116874;28;20006;-76
2022/03/17 15:07:07;;;;;;;;;;;;;;;;;;5116880;28;19916;-76
2022/03/17 15:09:32;;;;;;;;;;;;;;;;;;5116716;28;19916;-77
2022/03/17 15:11:58;;;;;;;;;;;;;;;;;;5115483;28;20359;-78
2022/03/17 15:14:23;;;;;;;;;;;;;;;;;;5116797;28;19975;-77
2022/03/17 15:16:49;;;;;;;;;;;;;;;;;;5114791;28;20069;-76
2022/03/17 15:19:14;;;;;;;;;;;;;;;;;;5115237;28;19915;-77
2022/03/17 15:21:40;;;;;;;;;;;;;;;;;;5115828;28;19933;-77
2022/03/17 15:24:05;;;;;;;;;;;;;;;;;;5116820;28;19923;-76
2022/03/17 15:26:31;;;;;;;;;;;;;;;;;;5116561;28;19971;-77
2022/03/17 15:31:40;;;;;;;;;;;;;;;;;;5116513;28;19923;-76
2022/03/17 15:34:06;;;;;;;;;;;;;;;;;;5116602;28;20267;-75
2022/03/17 15:36:32;;;;;;;;;;;;;;;;;;5116337;28;19922;-76
2022/03/17 15:38:59;;;;;;;;;;;;;;;;;;5149455;27;20359;-76
2022/03/17 15:41:25;;;;;;;;;;;;;;;;;;5116166;28;20401;-76
2022/03/17 15:43:51;;;;;;;;;;;;;;;;;;5116115;28;19970;-77
2022/03/17 15:46:17;;;;;;;;;;;;;;;;;;5112397;28;19916;-77
2022/03/17 15:48:42;;;;;;;;;;;;;;;;;;5100794;27;19920;-77
2022/03/17 15:51:08;;;;;;;;;;;;;;;;;;5109484;28;19924;-77
2022/03/17 15:53:34;;;;;;;;;;;;;;;;;;5114981;28;19919;-75
2022/03/17 15:55:59;;;;;;;;;;;;;;;;;;5115946;28;20364;-76
2022/03/17 15:58:25;;;;;;;;;;;;;;;;;;5115842;28;19966;-76
2022/03/17 16:00:50;;;;;;;;;;;;;;;;;;5116002;28;20367;-76
2022/03/17 16:03:17;;;;;;;;;;;;;;;;;;5102180;28;20386;-75
2022/03/17 16:05:43;;;;;;;;;;;;;;;;;;5096967;28;19941;-76
2022/03/17 16:08:08;;;;;;;;;;;;;;;;;;5092698;28;20012;-77
2022/03/17 16:16:01;;;;;;;;;;;;;;;;;;5115620;28;19923;-76
2022/03/17 16:18:28;;;;;;;;;;;;;;;;;;5148560;27;20283;-76
2022/03/17 16:20:53;;;;;;;;;;;;;;;;;;5148425;27;19916;-76
2022/03/17 16:23:19;;;;;;;;;;;;;;;;;;5115331;28;20347;-76
2022/03/17 16:25:49;;;;;;;;;;;;;;;;;;5115327;28;20007;-77
2022/03/17 16:28:14;;;;;;;;;;;;;;;;;;5115267;28;19944;-76
2022/03/17 16:30:40;;;;;;;;;;;;;;;;;;5115132;28;20000;-77
2022/03/17 16:33:05;;;;;;;;;;;;;;;;;;5115469;28;19969;-77
2022/03/17 16:35:31;;;;;;;;;;;;;;;;;;5115144;28;20397;-76
2022/03/17 16:37:56;;;;;;;;;;;;;;;;;;5115374;28;20336;-75
2022/03/17 16:40:22;;;;;;;;;;;;;;;;;;5114844;28;20382;-76
2022/03/17 16:42:47;;;;;;;;;;;;;;;;;;5114977;28;19919;-75
2022/03/17 16:45:13;;;;;;;;;;;;;;;;;;5114107;28;20325;-77
2022/03/17 16:47:40;;;;;;;;;;;;;;;;;;5113623;28;19920;-75
2022/03/17 16:50:09;;;;;;;;;;;;;;;;;;5114860;28;20355;-75
2022/03/17 16:52:34;;;;;;;;;;;;;;;;;;5148068;27;19916;-77
2022/03/17 16:55:01;;;;;;;;;;;;;;;;;;5104382;28;19939;-76
2022/03/17 16:57:26;;;;;;;;;;;;;;;;;;5094488;28;19916;-78
2022/03/17 16:59:53;;;;;;;;;;;;;;;;;;5094344;28;19946;-77
2022/03/17 17:02:21;;;;;;;;;;;;;;;;;;5096943;28;19924;-76
2022/03/17 17:04:47;;;;;;;;;;;;;;;;;;5111726;28;20433;-78
2022/03/17 17:07:12;;;;;;;;;;;;;;;;;;5114588;28;20014;-78
2022/03/17 17:09:38;;;;;;;;;;;;;;;;;;5113548;28;19928;-77
2022/03/17 17:12:03;;;;;;;;;;;;;;;;;;5114795;28;20004;-77
2022/03/17 17:14:29;;;;;;;;;;;;;;;;;;5114874;28;19923;-77
2022/03/17 17:16:56;;;;;;;;;;;;;;;;;;5114522;28;19915;-78
2022/03/17 17:19:25;;;;;;;;;;;;;;;;;;5114640;28;19926;-77
2022/03/17 17:21:54;;;;;;;;;;;;;;;;;;5114638;28;19947;-77
2022/03/17 17:32:32;;;;;;;;;;;;;;;;;;5114579;28;20061;-78
2022/03/17 17:34:58;;;;;;;;;;;;;;;;;;5114339;28;19957;-78
2022/03/17 17:37:24;;;;;;;;;;;;;;;;;;5114175;28;19930;-78